Time;durP1;ratioP1;P1;durP2;ratioP2;P2;SDS_P1;SDS_P2;PMS_P1;PMS_P2;Temp;Humidity;BMP_temperature;BMP_pressure;BME280_temperature;BME280_humidity;BME280_pressure;Samples;Min_cycle;Max_cycle;Signal;HPM_P1;HPM_P2
2022/06/09 00:00:56;;;;;;;16.92;4.85;;;;;;;11.54;100.00;100669.72;4992486;28;20136;-90
2022/06/09 00:03:28;;;;;;;18.20;4.90;;;;;;;11.51;100.00;100660.09;4990289;28;20041;-90
2022/06/09 00:05:54;;;;;;;14.05;5.15;;;;;;;11.47;100.00;100648.75;4993898;28;20030;-88
2022/06/09 00:08:20;;;;;;;19.85;5.30;;;;;;;11.59;100.00;100670.31;4984780;28;20037;-88
2022/06/09 00:10:54;;;;;;;14.35;5.32;;;;;;;11.59;100.00;100672.97;4995751;28;20029;-88
2022/06/09 00:13:19;;;;;;;;;;;;;;;11.59;100.00;100679.16;4995215;28;20328;-90
2022/06/09 00:15:45;;;;;;;18.17;5.10;;;;;;;11.57;100.00;100677.53;4993455;28;19928;-88
2022/06/09 00:18:10;;;;;;;14.77;5.32;;;;;;;11.59;100.00;100678.31;4991528;28;20026;-88
2022/06/09 00:20:35;;;;;;;16.00;5.05;;;;;;;11.59;100.00;100672.97;4991446;28;20057;-88
2022/06/09 00:23:01;;;;;;;20.65;5.25;;;;;;;11.63;100.00;100678.03;4995076;28;20026;-88
2022/06/09 00:25:26;;;;;;;18.05;6.05;;;;;;;11.67;100.00;100682.25;4985158;28;20094;-89
2022/06/09 00:27:51;;;;;;;19.60;5.53;;;;;;;11.64;100.00;100676.22;4993384;28;20022;-89
2022/06/09 00:30:17;;;;;;;18.50;5.78;;;;;;;11.67;100.00;100676.91;4988669;28;20038;-89
2022/06/09 00:32:43;;;;;;;17.73;5.88;;;;;;;11.64;100.00;100676.22;4991847;28;20031;-90
2022/06/09 00:35:09;;;;;;;21.10;6.25;;;;;;;11.67;100.00;100679.59;4996829;28;20503;-91
2022/06/09 00:37:35;;;;;;;19.90;6.13;;;;;;;11.70;100.00;100687.41;4997444;28;20025;-88
2022/06/09 00:40:02;;;;;;;18.77;6.07;;;;;;;11.70;100.00;100684.75;4995272;28;20589;-89
2022/06/09 00:42:28;;;;;;;20.45;6.45;;;;;;;11.71;100.00;100683.78;5009152;28;20011;-89
2022/06/09 00:44:53;;;;;;;14.25;5.70;;;;;;;11.68;100.00;100686.63;4985252;28;20033;-88
2022/06/09 00:47:31;;;;;;;18.52;5.63;;;;;;;11.67;100.00;100681.41;4993656;28;20472;-90
2022/06/09 00:50:27;;;;;;;22.38;6.40;;;;;;;11.69;100.00;100684.81;4995471;28;20052;-89
2022/06/09 00:52:57;;;;;;;23.00;5.60;;;;;;;11.64;100.00;100689.56;4973727;28;20030;-90
2022/06/09 00:55:26;;;;;;;21.80;6.35;;;;;;;11.62;100.00;100691.44;5004108;28;20038;-90
2022/06/09 00:57:56;;;;;;;18.67;5.90;;;;;;;11.57;100.00;100697.03;4979998;28;20030;-89
2022/06/09 01:00:27;;;;;;;20.58;5.95;;;;;;;11.53;100.00;100689.31;4989501;28;20035;-88
2022/06/09 01:02:57;;;;;;;19.33;6.38;;;;;;;11.53;100.00;100702.63;4989663;28;20042;-90
2022/06/09 01:05:24;;;;;;;22.33;6.47;;;;;;;11.48;100.00;100693.09;4997895;28;20461;-89
2022/06/09 01:07:54;;;;;;;20.23;6.43;;;;;;;11.43;100.00;100700.50;4988477;28;20026;-90
2022/06/09 01:10:19;;;;;;;24.75;6.50;;;;;;;11.36;100.00;100682.28;4992760;28;20439;-89
2022/06/09 01:12:46;;;;;;;21.40;6.15;;;;;;;11.36;100.00;100687.59;4993601;28;20105;-89
2022/06/09 01:15:17;;;;;;;20.83;6.70;;;;;;;11.23;100.00;100682.97;5004860;28;20074;-88
2022/06/09 01:17:59;;;;;;;22.30;6.68;;;;;;;11.28;100.00;100693.34;4989450;28;20022;-92
2022/06/09 01:20:36;;;;;;;22.50;6.10;;;;;;;11.22;100.00;100705.22;4992886;28;20117;-90
2022/06/09 01:23:09;;;;;;;20.35;6.22;;;;;;;11.19;100.00;100701.88;4991880;28;20530;-88
2022/06/09 01:26:01;;;;;;;26.13;7.18;;;;;;;11.17;100.00;100711.78;4994463;28;20065;-90
2022/06/09 01:28:52;;;;;;;26.30;6.82;;;;;;;11.14;100.00;100709.25;4988476;28;20687;-89
2022/06/09 01:31:55;;;;;;;20.25;6.65;;;;;;;11.11;100.00;100712.94;4989637;28;20030;-91
2022/06/09 01:34:37;;;;;;;23.52;6.90;;;;;;;11.10;100.00;100707.72;4990991;28;20042;-90
2022/06/09 01:37:13;;;;;;;26.55;7.07;;;;;;;11.12;100.00;100704.03;4994416;28;20073;-90
2022/06/09 01:39:52;;;;;;;23.88;7.60;;;;;;;11.17;100.00;100709.09;4989359;28;20030;-87
2022/06/09 01:42:37;;;;;;;25.70;8.32;;;;;;;11.18;100.00;100716.13;4994048;28;20038;-88
2022/06/09 01:45:20;;;;;;;27.92;9.23;;;;;;;11.18;100.00;100716.13;4986702;28;20097;-89
2022/06/09 01:48:07;;;;;;;23.45;7.75;;;;;;;11.20;100.00;100716.91;4989472;28;20014;-88
2022/06/09 01:50:54;;;;;;;25.38;7.43;;;;;;;11.20;100.00;100711.56;4998885;28;20049;-89
2022/06/09 01:53:34;;;;;;;30.08;8.13;;;;;;;11.18;100.00;100717.00;4988921;28;20022;-89
2022/06/09 01:56:08;;;;;;;31.23;8.50;;;;;;;11.22;100.00;100725.69;4992046;28;20484;-88
2022/06/09 01:58:46;;;;;;;25.58;7.63;;;;;;;11.15;100.00;100713.63;4989557;28;20046;-88
2022/06/09 02:01:14;;;;;;;24.13;7.72;;;;;;;11.20;100.00;100730.22;4990170;28;20085;-88
2022/06/09 02:03:44;;;;;;;25.92;8.55;;;;;;;11.18;100.00;100717.00;4970411;28;20490;-88
2022/06/09 02:06:10;;;;;;;28.40;8.65;;;;;;;11.21;100.00;100731.97;4992136;28;20030;-89
2022/06/09 02:08:38;;;;;;;25.52;8.30;;;;;;;11.25;100.00;100738.00;4990811;28;20524;-89
2022/06/09 02:11:09;;;;;;;32.72;8.70;;;;;;;11.25;100.00;100732.66;4983854;28;20116;-88
2022/06/09 02:13:45;;;;;;;29.83;8.23;;;;;;;11.27;100.00;100731.63;4991514;28;20038;-89
2022/06/09 02:16:16;;;;;;;29.63;8.10;;;;;;;11.26;100.00;100739.69;4991908;28;20475;-89
2022/06/09 02:18:45;;;;;;;31.55;8.65;;;;;;;11.25;100.00;100748.66;4990295;28;20041;-89
2022/06/09 02:21:28;;;;;;;28.58;8.90;;;;;;;11.23;100.00;100748.72;4999186;28;20566;-89
2022/06/09 02:23:54;;;;;;;31.40;8.57;;;;;;;11.16;100.00;100739.31;4987317;28;20038;-88
2022/06/09 02:26:20;;;;;;;28.95;7.95;;;;;;;11.13;100.00;100751.03;4991453;28;20030;-90
2022/06/09 02:28:47;;;;;;;26.00;8.32;;;;;;;11.14;100.00;100757.22;4973298;28;20590;-89
2022/06/09 02:31:13;;;;;;;24.77;8.30;;;;;;;11.14;100.00;100754.56;4991515;28;20100;-89
2022/06/09 02:33:38;;;;;;;34.30;9.18;;;;;;;11.13;100.00;100761.69;4993062;28;20120;-89
2022/06/09 02:36:03;;;;;;;34.13;9.05;;;;;;;11.10;100.00;100755.66;4991460;28;20037;-89
2022/06/09 02:38:29;;;;;;;35.55;9.30;;;;;;;11.14;100.00;100770.53;4993731;28;20407;-89
2022/06/09 02:40:55;;;;;;;27.88;8.80;;;;;;;11.15;100.00;100765.09;4995824;28;20538;-89
2022/06/09 02:43:21;;;;;;;34.25;8.95;;;;;;;11.15;100.00;100775.75;4992683;28;20030;-89
2022/06/09 02:45:47;;;;;;;30.83;8.82;;;;;;;11.14;100.00;100766.06;4996426;28;20042;-90
2022/06/09 02:48:12;;;;;;;34.20;9.75;;;;;;;11.13;100.00;100769.69;4995184;28;20041;-89
2022/06/09 02:50:38;;;;;;;25.83;8.90;;;;;;;11.12;100.00;100775.06;4990706;28;20097;-89
2022/06/09 02:53:04;;;;;;;37.10;9.80;;;;;;;11.11;100.00;100773.34;5001584;28;20025;-88
2022/06/09 02:55:30;;;;;;;28.92;8.45;;;;;;;11.12;100.00;100775.94;4996189;28;20084;-89
2022/06/09 02:57:55;;;;;;;30.58;9.52;;;;;;;11.12;100.00;100780.41;4994901;28;20022;-90
2022/06/09 03:00:21;;;;;;;27.33;8.80;;;;;;;11.11;100.00;100782.19;5000254;28;20042;-89
2022/06/09 03:02:58;;;;;;;31.92;9.43;;;;;;;11.08;100.00;100782.38;4993994;28;20022;-89
2022/06/09 03:05:24;;;;;;;37.42;9.13;;;;;;;11.08;100.00;100781.53;4994355;28;20550;-89
2022/06/09 03:07:49;;;;;;;32.53;9.38;;;;;;;11.07;100.00;100785.13;4979272;28;20037;-89
2022/06/09 03:10:16;;;;;;;35.17;10.32;;;;;;;11.07;100.00;100790.44;4994605;28;20104;-90
2022/06/09 03:12:42;;;;;;;34.42;9.55;;;;;;;11.04;100.00;100788.81;5001326;28;20054;-89
2022/06/09 03:15:10;;;;;;;33.15;10.48;;;;;;;11.00;100.00;100794.41;5006472;28;20045;-90
2022/06/09 03:17:36;;;;;;;29.35;9.18;;;;;;;10.95;100.00;100795.50;4983521;28;20077;-89
2022/06/09 03:20:05;;;;;;;34.88;10.55;;;;;;;10.94;100.00;100798.22;4983747;28;20039;-88
2022/06/09 03:22:32;;;;;;;35.45;10.05;;;;;;;10.94;100.00;100801.75;4992099;28;20084;-89
2022/06/09 03:24:57;;;;;;;34.33;10.82;;;;;;;10.96;100.00;100820.31;4984491;28;20046;-89
2022/06/09 03:27:23;;;;;;;36.58;10.43;;;;;;;10.87;100.00;100808.38;4985901;28;20030;-89
2022/06/09 03:29:48;;;;;;;31.98;10.52;;;;;;;10.89;100.00;100810.94;4987558;28;20030;-88
2022/06/09 03:32:13;;;;;;;41.28;12.00;;;;;;;10.96;100.00;100818.53;4987677;28;20023;-89
2022/06/09 03:34:39;;;;;;;36.20;10.73;;;;;;;10.94;100.00;100823.06;4980757;28;20088;-89
2022/06/09 03:37:04;;;;;;;35.05;11.00;;;;;;;10.88;100.00;100819.88;4984359;28;20368;-89
2022/06/09 03:39:30;;;;;;;34.35;10.90;;;;;;;10.95;100.00;100843.44;4985476;28;20037;-89
2022/06/09 03:41:55;;;;;;;32.17;10.30;;;;;;;10.91;100.00;100836.56;4982896;28;20026;-88
2022/06/09 03:44:20;;;;;;;32.95;10.13;;;;;;;10.93;100.00;100839.13;4987534;28;20038;-89
2022/06/09 03:46:46;;;;;;;33.17;11.10;;;;;;;10.92;100.00;100848.91;4987735;28;20031;-88
2022/06/09 03:49:11;;;;;;;31.48;10.60;;;;;;;10.96;100.00;100845.16;4985314;28;20034;-89
2022/06/09 03:51:37;;;;;;;37.47;11.00;;;;;;;10.92;100.00;100846.25;4997490;28;20057;-88
2022/06/09 03:54:02;;;;;;;35.63;11.30;;;;;;;10.91;100.00;100851.63;4988974;28;20070;-90
2022/06/09 03:56:28;;;;;;;32.55;10.45;;;;;;;10.90;100.00;100856.09;4976440;28;20088;-89
2022/06/09 03:58:53;;;;;;;32.08;11.10;;;;;;;10.86;100.00;100857.22;4992337;28;20625;-90
2022/06/09 04:01:19;;;;;;;27.83;10.73;;;;;;;10.84;100.00;100861.78;4998827;28;20117;-88
2022/06/09 04:03:46;;;;;;;34.67;11.23;;;;;;;10.84;100.00;100864.44;4996796;28;20050;-89
2022/06/09 04:06:20;;;;;;;36.10;10.73;;;;;;;10.82;100.00;100863.63;4996495;28;20025;-89
2022/06/09 04:08:47;;;;;;;32.83;10.93;;;;;;;10.83;100.00;100870.69;4981674;28;20034;-88
2022/06/09 04:11:12;;;;;;;36.97;11.23;;;;;;;10.87;100.00;100882.06;4995932;28;20030;-89
2022/06/09 04:13:38;;;;;;;31.65;11.63;;;;;;;10.85;100.00;100871.47;4993245;28;20026;-89
2022/06/09 04:16:20;;;;;;;38.53;11.23;;;;;;;10.96;100.00;100889.56;4997931;28;20045;-89
2022/06/09 04:18:45;;;;;;;39.78;11.57;;;;;;;10.94;100.00;100872.78;5001380;28;20021;-90
2022/06/09 04:21:11;;;;;;;33.67;11.65;;;;;;;11.03;100.00;100882.09;4996448;28;20084;-90
2022/06/09 04:23:36;;;;;;;32.95;11.52;;;;;;;11.06;100.00;100882.81;4994270;28;20019;-88
2022/06/09 04:26:01;;;;;;;36.25;12.43;;;;;;;11.09;100.00;100893.31;4997610;28;20023;-88
2022/06/09 04:28:27;;;;;;;32.35;11.50;;;;;;;11.03;100.00;100882.97;4988582;28;20030;-89
2022/06/09 04:30:52;;;;;;;39.33;11.65;;;;;;;11.05;100.00;100893.56;4994934;28;20030;-89
2022/06/09 04:33:17;;;;;;;35.15;11.30;;;;;;;11.06;100.00;100895.28;4995249;28;20060;-88
2022/06/09 04:35:43;;;;;;;34.33;10.93;;;;;;;11.03;100.00;100887.44;4992821;28;20038;-89
2022/06/09 04:38:11;;;;;;;34.03;11.48;;;;;;;11.06;100.00;100900.59;4990724;28;20543;-89
2022/06/09 04:40:39;;;;;;;38.40;12.07;;;;;;;11.17;100.00;100906.25;4995972;28;20030;-89
2022/06/09 04:43:08;;;;;;;29.42;11.68;;;;;;;11.25;100.00;100908.50;4994691;28;20038;-89
2022/06/09 04:45:34;;;;;;;32.63;12.18;;;;;;;11.31;100.00;100909.03;5000520;28;20022;-88
2022/06/09 04:48:00;;;;;;;37.92;12.13;;;;;;;11.33;100.00;100904.50;4992681;28;20547;-89
2022/06/09 04:50:26;;;;;;;31.52;11.80;;;;;;;11.32;100.00;100910.75;4996045;28;20029;-90
2022/06/09 04:52:51;;;;;;;29.73;12.02;;;;;;;11.41;100.00;100914.72;4990082;28;20026;-90
2022/06/09 04:55:17;;;;;;;33.88;11.77;;;;;;;11.43;100.00;100916.38;4995026;28;20034;-90
2022/06/09 04:57:42;;;;;;;35.78;11.82;;;;;;;11.41;100.00;100915.59;4995702;28;20026;-90
2022/06/09 05:00:11;;;;;;;35.20;11.60;;;;;;;11.42;100.00;100927.13;4999013;28;20033;-90
2022/06/09 05:02:36;;;;;;;34.85;10.82;;;;;;;11.37;100.00;100927.38;4994493;28;20489;-90
2022/06/09 05:05:02;;;;;;;29.17;11.23;;;;;;;11.39;100.00;100940.59;4991519;28;20045;-93
2022/06/09 05:07:28;;;;;;;33.60;11.90;;;;;;;11.34;100.00;100934.66;4992829;28;20104;-90
2022/06/09 05:09:54;;;;;;;34.20;11.25;;;;;;;11.38;100.00;100941.56;4988811;28;20072;-90
2022/06/09 05:12:20;;;;;;;30.13;11.25;;;;;;;11.39;100.00;100949.47;4992139;28;20089;-89
2022/06/09 05:14:46;;;;;;;35.17;12.60;;;;;;;11.40;100.00;100955.66;4994423;28;20054;-90
2022/06/09 05:17:11;;;;;;;34.58;11.25;;;;;;;11.39;100.00;100960.13;4995160;28;20520;-89
2022/06/09 05:19:37;;;;;;;34.08;11.32;;;;;;;11.41;100.00;100957.34;4994364;28;20033;-88
2022/06/09 05:22:02;;;;;;;32.33;12.48;;;;;;;11.41;100.00;100960.03;4989192;28;20038;-89
2022/06/09 05:24:27;;;;;;;43.17;12.60;;;;;;;11.52;100.00;100970.13;4991810;28;20030;-89
2022/06/09 05:26:53;;;;;;;34.15;12.13;;;;;;;11.57;100.00;100973.41;4994185;28;20045;-89
2022/06/09 05:29:18;;;;;;;36.55;13.20;;;;;;;11.77;100.00;100980.34;4994350;28;20023;-88
2022/06/09 05:31:43;;;;;;;35.58;13.13;;;;;;;11.99;100.00;100978.28;4993048;28;20026;-88
2022/06/09 05:34:09;;;;;;;31.65;12.98;;;;;;;12.09;100.00;100976.84;4994995;28;20065;-89
2022/06/09 05:36:35;;;;;;;36.53;13.80;;;;;;;12.20;100.00;100989.56;4992787;28;20039;-89
2022/06/09 05:47:12;;;;;;;34.97;12.00;;;;;;;12.71;100.00;101012.50;4988857;28;21059;-88
2022/06/09 05:49:37;;;;;;;29.92;11.68;;;;;;;12.88;100.00;100998.19;4987149;28;20027;-92
2022/06/09 05:52:03;;;;;;;30.08;10.90;;;;;;;13.16;100.00;101001.88;4987063;28;20054;-90
2022/06/09 05:54:28;;;;;;;27.02;10.93;;;;;;;13.36;100.00;100996.25;4994344;28;20034;-89
2022/06/09 05:56:54;;;;;;;24.52;9.90;;;;;;;13.55;100.00;101008.53;4977383;28;20069;-91
2022/06/09 05:59:20;;;;;;;23.10;10.65;;;;;;;13.59;100.00;101015.41;4990856;28;20022;-91
2022/06/09 06:01:45;;;;;;;18.13;9.60;;;;;;;13.58;100.00;101025.22;4990757;28;20578;-91
2022/06/09 06:04:10;;;;;;;21.05;8.70;;;;;;;13.41;100.00;101028.91;4992532;28;20038;-91
2022/06/09 06:06:36;;;;;;;21.63;8.25;;;;;;;13.29;100.00;101028.78;4992697;28;20021;-91
2022/06/09 06:09:04;;;;;;;23.45;8.10;;;;;;;13.20;100.00;101040.84;4995948;28;20109;-89
2022/06/09 06:11:30;;;;;;;26.40;8.90;;;;;;;13.16;100.00;101048.19;5000214;28;20045;-90
2022/06/09 06:13:55;;;;;;;22.27;9.45;;;;;;;13.08;100.00;101049.56;4991712;28;20026;-90
2022/06/09 06:16:22;;;;;;;26.85;9.90;;;;;;;13.12;100.00;101061.81;4998570;28;20030;-89
2022/06/09 06:18:48;;;;;;;23.75;8.13;;;;;;;13.14;100.00;101052.75;5000092;28;20392;-89
2022/06/09 06:21:14;;;;;;;26.00;10.00;;;;;;;13.34;100.00;101057.00;4987559;28;20030;-88
2022/06/09 06:23:40;;;;;;;23.38;9.98;;;;;;;13.58;100.00;101061.81;4993953;28;20026;-89
2022/06/09 06:26:06;;;;;;;21.10;8.40;;;;;;;13.86;100.00;101069.88;4990761;28;20065;-93
2022/06/09 06:28:31;;;;;;;24.90;8.85;;;;;;;14.02;100.00;101055.59;4977336;28;20030;-93
2022/06/09 06:30:57;;;;;;;24.20;9.05;;;;;;;14.19;100.00;101056.25;4988798;28;20046;-91
2022/06/09 06:33:23;;;;;;;22.88;8.85;;;;;;;14.48;100.00;101068.75;4990688;28;20029;-94
2022/06/09 06:35:49;;;;;;;19.85;9.80;;;;;;;14.60;100.00;101062.66;4995366;28;20043;-94
2022/06/09 06:38:15;;;;;;;22.35;8.57;;;;;;;14.72;100.00;101071.72;4993189;28;20105;-92
2022/06/09 06:40:40;;;;;;;21.27;9.38;;;;;;;14.80;100.00;101080.13;4993278;28;20030;-94
2022/06/09 06:43:06;;;;;;;21.45;11.13;;;;;;;14.82;100.00;101075.53;4994663;28;20040;-95
2022/06/09 06:45:31;;;;;;;17.05;7.95;;;;;;;14.88;100.00;101086.72;4994366;28;20073;-95
2022/06/09 06:47:57;;;;;;;16.42;8.00;;;;;;;14.91;100.00;101091.00;4995472;28;20042;-94
2022/06/09 06:50:24;;;;;;;20.23;7.88;;;;;;;14.95;100.00;101088.00;4990510;28;20431;-94
2022/06/09 06:52:49;;;;;;;17.85;8.45;;;;;;;15.01;99.66;101099.31;4995715;28;20033;-94
2022/06/09 06:55:18;;;;;;;19.20;8.13;;;;;;;14.83;98.93;101086.13;4995871;28;20027;-94
2022/06/09 06:57:43;;;;;;;15.70;7.65;;;;;;;14.90;99.06;101102.69;4987609;28;20519;-94
2022/06/09 07:00:12;;;;;;;16.50;8.07;;;;;;;14.92;97.84;101106.09;4996936;28;20009;-88
2022/06/09 07:02:38;;;;;;;15.35;8.10;;;;;;;14.92;97.98;101100.75;4993638;28;20022;-94
2022/06/09 07:05:04;;;;;;;15.65;7.75;;;;;;;15.02;97.32;101114.44;4993529;28;20038;-93
2022/06/09 07:07:30;;;;;;;19.70;7.63;;;;;;;15.08;97.68;101117.56;4978856;28;20114;-92
2022/06/09 07:09:55;;;;;;;15.60;7.72;;;;;;;15.11;96.76;101127.22;4992131;28;20054;-91
2022/06/09 07:12:21;;;;;;;16.13;6.82;;;;;;;15.09;96.33;101124.66;4992261;28;20026;-91
2022/06/09 07:14:46;;;;;;;18.38;7.15;;;;;;;15.19;97.62;101131.13;5002017;28;20096;-91
2022/06/09 07:17:11;;;;;;;14.20;7.40;;;;;;;15.17;96.62;101124.13;4986783;28;20073;-90
2022/06/09 07:19:37;;;;;;;15.30;6.93;;;;;;;15.31;96.06;101136.66;4998000;28;20670;-90
2022/06/09 07:22:04;;;;;;;14.63;7.13;;;;;;;15.33;94.98;101137.41;4997943;28;20037;-91
2022/06/09 07:24:29;;;;;;;16.67;8.50;;;;;;;15.26;93.19;101142.31;4980777;28;20092;-92
2022/06/09 07:26:54;;;;;;;19.38;11.65;;;;;;;15.28;94.75;101155.63;4997840;28;20038;-90
2022/06/09 07:29:20;;;;;;;15.38;7.50;;;;;;;15.27;95.73;101151.22;4978835;28;20026;-91
2022/06/09 07:31:45;;;;;;;17.17;7.60;;;;;;;15.30;94.60;101149.22;4999063;28;20335;-91
2022/06/09 07:34:11;;;;;;;14.73;7.63;;;;;;;15.40;94.14;101144.94;4998536;28;20050;-92
2022/06/09 07:36:37;;;;;;;13.77;7.68;;;;;;;15.42;91.43;101160.94;4998149;28;20047;-92
2022/06/09 07:39:03;;;;;;;12.13;6.95;;;;;;;15.32;93.12;101157.16;4981623;28;20034;-90
2022/06/09 07:41:29;;;;;;;16.10;6.47;;;;;;;15.33;92.64;101165.06;4999573;28;20424;-92
2022/06/09 07:43:55;;;;;;;14.25;6.63;;;;;;;15.43;91.64;101168.88;4995703;28;20042;-92
2022/06/09 07:46:20;;;;;;;11.05;5.75;;;;;;;15.64;91.82;101173.78;4997305;28;20023;-91
2022/06/09 07:48:46;;;;;;;15.30;6.38;;;;;;;15.78;91.70;101170.22;5005866;28;20056;-90
2022/06/09 07:51:12;;;;;;;10.20;5.80;;;;;;;15.79;88.87;101156.69;5006090;28;20034;-92
2022/06/09 07:53:37;;;;;;;10.20;5.97;;;;;;;15.96;90.98;101163.59;4984837;28;20034;-92
2022/06/09 07:56:03;;;;;;;13.30;5.22;;;;;;;16.13;87.91;101176.69;4998126;28;20038;-90
2022/06/09 07:58:29;;;;;;;13.52;5.68;;;;;;;16.22;86.97;101169.88;4995550;28;20473;-90
2022/06/09 08:00:55;;;;;;;11.50;6.13;;;;;;;16.30;87.11;101188.13;4991463;28;20030;-92
2022/06/09 08:03:23;;;;;;;14.60;5.90;;;;;;;16.22;86.91;101180.59;5009853;28;20037;-92
2022/06/09 08:05:49;;;;;;;8.50;4.82;;;;;;;16.37;86.84;101184.03;4999841;28;20034;-92
2022/06/09 08:08:14;;;;;;;8.32;4.57;;;;;;;16.57;85.49;101182.66;5014475;28;20361;-93
2022/06/09 08:10:41;;;;;;;7.65;3.95;;;;;;;16.82;86.71;101190.72;4997930;28;20328;-92
2022/06/09 08:13:07;;;;;;;10.20;4.18;;;;;;;17.00;84.71;101193.06;4997845;28;20026;-93
2022/06/09 08:15:33;;;;;;;13.25;7.00;;;;;;;17.13;84.90;101191.19;4998403;28;20043;-91
2022/06/09 08:17:59;;;;;;;6.55;2.95;;;;;;;17.10;81.36;101196.81;4979534;28;20137;-91
2022/06/09 08:20:30;;;;;;;8.88;4.00;;;;;;;17.02;81.69;101197.34;5005902;28;20038;-94
2022/06/09 08:23:10;;;;;;;6.85;3.42;;;;;;;17.05;84.05;101207.88;4983809;28;20026;-92
2022/06/09 08:25:37;;;;;;;7.03;2.60;;;;;;;17.01;79.93;101209.06;4999496;28;20061;-92
2022/06/09 08:28:04;;;;;;;3.70;2.20;;;;;;;17.02;78.70;101209.94;5001949;28;20034;-92
2022/06/09 08:30:31;;;;;;;16.77;8.15;;;;;;;17.23;80.77;101215.59;4983112;28;20038;-91
2022/06/09 08:32:57;;;;;;;6.25;3.20;;;;;;;17.69;79.48;101213.06;4997034;28;20038;-90
2022/06/09 08:35:24;;;;;;;5.93;3.10;;;;;;;18.03;76.65;101221.31;4996680;28;20010;-92
2022/06/09 08:37:51;;;;;;;5.90;2.38;;;;;;;18.37;74.57;101212.34;4993306;28;20038;-89
2022/06/09 08:40:33;;;;;;;4.25;2.45;;;;;;;19.27;74.06;101217.81;4992122;28;20183;-92
2022/06/09 08:43:01;;;;;;;7.20;2.97;;;;;;;19.32;71.73;101220.13;4993391;28;20109;-91
2022/06/09 08:45:33;;;;;;;3.97;1.98;;;;;;;19.26;72.23;101229.56;4989795;28;20399;-90
2022/06/09 08:48:00;;;;;;;6.30;2.47;;;;;;;19.06;69.65;101222.22;4996573;28;20029;-92
2022/06/09 08:50:35;;;;;;;4.95;2.40;;;;;;;18.99;74.15;101232.66;4984952;28;20034;-92
2022/06/09 08:56:33;;;;;;;7.55;2.70;;;;;;;18.53;74.21;101230.03;4991240;28;20037;-92
2022/06/09 08:59:16;;;;;;;5.43;2.63;;;;;;;18.24;76.09;101230.44;4994454;28;20412;-92
2022/06/09 09:01:58;;;;;;;5.88;2.70;;;;;;;18.16;78.95;101246.34;5000254;28;20440;-92
2022/06/09 09:04:42;;;;;;;5.38;2.80;;;;;;;18.11;77.72;101256.63;4989938;28;20026;-90
2022/06/09 09:07:20;;;;;;;5.15;2.60;;;;;;;18.38;75.66;101253.63;4991860;28;20031;-92
2022/06/09 09:09:47;;;;;;;7.70;3.25;;;;;;;18.64;73.77;101248.88;4987107;28;20027;-93
2022/06/09 09:12:27;;;;;;;6.20;3.22;;;;;;;18.94;74.13;101251.06;4995127;28;20054;-92
2022/06/09 09:14:59;;;;;;;6.68;3.15;;;;;;;19.38;72.72;101260.97;4992616;28;20049;-93
2022/06/09 09:17:48;;;;;;;5.05;2.60;;;;;;;19.85;75.14;101258.91;4979286;28;20011;-92
2022/06/09 09:20:48;;;;;;;7.22;3.70;;;;;;;20.14;72.34;101261.88;4982334;28;20046;-92
2022/06/09 09:23:17;;;;;;;5.80;2.90;;;;;;;20.01;66.58;101265.75;4995393;28;20030;-93
2022/06/09 09:26:15;;;;;;;3.33;2.58;;;;;;;20.17;72.95;101259.91;4996332;28;20404;-92
2022/06/09 09:29:01;;;;;;;6.43;3.17;;;;;;;20.11;71.20;101258.59;4993884;28;20121;-92
2022/06/09 09:31:26;;;;;;;5.43;3.03;;;;;;;19.87;65.66;101266.91;4982571;28;20022;-91
2022/06/09 09:33:52;;;;;;;4.35;2.65;;;;;;;19.76;67.00;101273.19;4995919;28;20061;-92
2022/06/09 09:36:22;;;;;;;5.85;3.22;;;;;;;19.88;66.75;101279.41;4987249;28;20657;-92
2022/06/09 09:38:55;;;;;;;4.30;2.80;;;;;;;19.89;66.92;101287.38;4996299;28;20034;-94
2022/06/09 09:41:36;;;;;;;4.75;3.35;;;;;;;20.01;70.02;101284.66;4977976;28;20034;-93
2022/06/09 09:44:20;;;;;;;5.68;2.95;;;;;;;20.15;72.13;101281.66;4992526;28;20034;-93
2022/06/09 09:46:58;;;;;;;4.90;2.88;;;;;;;20.24;66.21;101282.75;4992379;28;20034;-92
2022/06/09 09:49:31;;;;;;;7.15;3.58;;;;;;;19.93;67.45;101284.44;4993642;28;20411;-91
2022/06/09 09:51:58;;;;;;;6.55;3.50;;;;;;;19.57;67.79;101297.28;5000188;28;20128;-91
2022/06/09 09:54:30;;;;;;;5.25;3.20;;;;;;;18.98;69.08;101301.09;4995104;28;20034;-91
2022/06/09 09:57:20;;;;;;;10.02;5.97;;;;;;;18.67;74.37;101313.38;4977002;28;20045;-91
2022/06/09 09:59:51;;;;;;;9.32;4.10;;;;;;;18.42;72.14;101300.91;4976519;28;20045;-91
2022/06/09 10:08:37;;;;;;;9.20;4.65;;;;;;;18.58;73.30;101314.09;4994318;28;20038;-92
2022/06/09 10:14:01;;;;;;;7.65;4.07;;;;;;;19.28;70.47;101319.38;5014401;28;20164;-90
2022/06/09 10:16:31;;;;;;;5.93;3.67;;;;;;;19.58;70.28;101323.28;5007543;28;20050;-91
2022/06/09 10:19:01;;;;;;;6.35;4.07;;;;;;;20.02;68.02;101316.97;4998758;28;20042;-91
2022/06/09 10:21:26;;;;;;;8.77;4.15;;;;;;;20.75;66.52;101322.56;4994151;28;20049;-91
2022/06/09 10:24:07;;;;;;;7.47;3.85;;;;;;;22.46;63.94;101328.00;4993899;28;20030;-91
2022/06/09 10:26:40;;;;;;;5.47;4.00;;;;;;;23.60;60.02;101311.56;4985973;28;20025;-90
2022/06/09 10:29:16;;;;;;;8.85;3.97;;;;;;;26.86;50.49;101327.25;4987256;28;20034;-91
2022/06/09 10:31:55;;;;;;;4.97;2.97;;;;;;;26.99;49.97;101333.88;4989782;28;20034;-92
2022/06/09 10:34:36;;;;;;;11.10;6.32;;;;;;;24.63;53.36;101339.34;4990503;28;20042;-90
2022/06/09 10:37:25;;;;;;;10.13;4.03;;;;;;;22.20;62.12;101349.41;4987845;28;20085;-89
2022/06/09 10:40:12;;;;;;;7.55;4.22;;;;;;;19.85;70.23;101358.84;4980187;28;20038;-87
2022/06/09 10:42:45;;;;;;;4.75;4.00;;;;;;;18.31;76.61;101357.47;4989291;28;20037;-86
2022/06/09 10:45:17;;;;;;;9.55;8.10;;;;;;;17.48;80.92;101357.28;4991567;28;20377;-88
2022/06/09 10:56:55;;;;;;;5.30;4.10;;;;;;;16.03;90.95;101370.78;4995172;28;20493;-88
2022/06/09 10:59:37;;;;;;;6.93;4.40;;;;;;;16.09;90.13;101373.03;4988416;28;20038;-87
2022/06/09 11:02:10;;;;;;;6.63;4.70;;;;;;;16.29;90.21;101379.78;4992452;28;20031;-87
2022/06/09 11:04:36;;;;;;;6.75;3.90;;;;;;;16.38;87.77;101373.81;4973701;28;20035;-87
2022/06/09 11:07:18;;;;;;;6.35;4.13;;;;;;;16.68;87.73;101382.50;4994394;28;20022;-86
2022/06/09 11:09:58;;;;;;;5.53;4.07;;;;;;;17.01;86.51;101381.16;4992841;28;20026;-87
2022/06/09 11:12:54;;;;;;;6.65;4.88;;;;;;;17.33;85.96;101381.63;4997113;28;20418;-87
2022/06/09 11:15:19;;;;;;;7.07;5.28;;;;;;;17.47;84.01;101385.16;4990956;28;20289;-87
2022/06/09 11:18:08;;;;;;;6.00;5.00;;;;;;;17.73;83.74;101386.84;4991559;28;20080;-86
2022/06/09 11:20:44;;;;;;;6.25;5.65;;;;;;;17.86;84.32;101395.78;4993005;28;20030;-88
2022/06/09 11:23:15;;;;;;;7.05;5.95;;;;;;;17.73;84.04;101408.38;4989729;28;20031;-87
2022/06/09 11:26:12;;;;;;;8.98;5.97;;;;;;;17.52;85.02;101399.16;4980099;28;20380;-86
2022/06/09 11:28:59;;;;;;;12.40;6.80;;;;;;;17.17;84.52;101395.28;4992571;28;20022;-88
2022/06/09 11:32:03;;;;;;;8.70;7.20;;;;;;;16.88;85.77;101407.19;5003419;28;20031;-88
2022/06/09 11:35:02;;;;;;;12.20;7.00;;;;;;;16.57;85.44;101406.56;4986639;28;20031;-87
2022/06/09 11:38:09;;;;;;;9.60;7.60;;;;;;;16.34;86.40;101408.06;4998317;28;20042;-88
2022/06/09 11:40:57;;;;;;;9.20;4.80;;;;;;;16.16;83.04;101415.50;4993548;28;20097;-86
2022/06/09 11:43:38;;;;;;;6.15;3.75;;;;;;;16.00;85.03;101419.28;4978471;28;20105;-87
2022/06/09 11:46:14;;;;;;;7.68;4.30;;;;;;;15.92;84.51;101417.09;4976534;28;20035;-87
2022/06/09 11:48:45;;;;;;;6.50;4.25;;;;;;;15.88;86.99;101419.16;4996885;28;20034;-89
2022/06/09 11:51:14;;;;;;;6.65;5.00;;;;;;;15.88;87.18;101431.69;4999880;28;20121;-89
2022/06/09 11:53:46;;;;;;;6.35;5.55;;;;;;;15.69;89.22;101438.22;5007066;28;20037;-90
2022/06/09 11:56:40;;;;;;;7.55;6.00;;;;;;;15.49;89.17;101435.03;4988955;28;20034;-87